Time;durP1;ratioP1;P1;durP2;ratioP2;P2;SDS_P1;SDS_P2;PMS_P1;PMS_P2;Temp;Humidity;BMP_temperature;BMP_pressure;BME280_temperature;BME280_humidity;BME280_pressure;Samples;Min_cycle;Max_cycle;Signal;HPM_P1;HPM_P2
2022/01/21 00:01:37;;;;;;;3.20;3.00;;;;;;;-0.83;100.00;102230.59;5032326;28;20049;-59
2022/01/21 00:04:41;;;;;;;0.85;0.85;;;;;;;-0.81;100.00;102236.50;5032487;28;20052;-59
2022/01/21 00:07:44;;;;;;;4.50;1.92;;;;;;;-0.85;100.00;102235.59;4992671;28;20049;-59
2022/01/21 00:10:48;;;;;;;2.58;2.38;;;;;;;-0.91;100.00;102231.50;4996405;28;20069;-59
2022/01/21 00:13:52;;;;;;;1.80;1.70;;;;;;;-0.97;100.00;102219.97;4996769;28;20053;-59
2022/01/21 00:16:55;;;;;;;4.47;2.85;;;;;;;-0.96;100.00;102212.56;5013953;28;20057;-59
2022/01/21 00:30:13;;;;;;;2.97;2.45;;;;;;;-1.01;100.00;102221.78;5035217;28;20072;-59
2022/01/21 00:33:16;;;;;;;2.63;2.43;;;;;;;-0.98;100.00;102236.72;5035847;28;20409;-59
2022/01/21 00:36:20;;;;;;;2.63;2.38;;;;;;;-0.97;100.00;102241.03;5035517;28;20067;-59
2022/01/21 00:39:26;;;;;;;8.65;3.13;;;;;;;-0.96;100.00;102250.84;5035653;28;20048;-62
2022/01/21 00:42:55;;;;;;;8.70;3.50;;;;;;;-0.92;100.00;102246.28;5036169;28;20048;-66
2022/01/21 00:45:58;;;;;;;4.45;1.58;;;;;;;-0.88;100.00;102239.81;5018523;28;20069;-60
2022/01/21 00:49:02;;;;;;;3.13;2.92;;;;;;;-0.85;100.00;102235.59;4997989;28;20057;-60
2022/01/21 00:52:06;;;;;;;3.28;2.45;;;;;;;-0.85;100.00;102241.06;4996047;28;20053;-59
2022/01/21 00:55:10;;;;;;;3.78;2.83;;;;;;;-0.90;100.00;102233.88;4995897;28;20498;-59
2022/01/21 00:58:14;;;;;;;4.47;3.10;;;;;;;-0.90;100.00;102236.63;4995697;28;20049;-59
2022/01/21 01:01:17;;;;;;;15.07;3.97;;;;;;;-0.90;100.00;102233.06;4995178;28;20057;-59
2022/01/21 01:04:21;;;;;;;2.08;1.90;;;;;;;-0.93;100.00;102228.28;4995246;28;20046;-59
2022/01/21 01:07:24;;;;;;;1.60;1.60;;;;;;;-0.99;100.00;102235.09;4994876;28;20053;-59
2022/01/21 01:20:36;;;;;;;5.28;2.67;;;;;;;-0.96;100.00;102231.72;4993968;28;20093;-59
2022/01/21 01:24:01;;;;;;;1.00;1.00;;;;;;;-0.97;100.00;102230.09;4994186;28;20503;-59
2022/01/21 01:30:27;;;;;;;8.50;2.55;;;;;;;-0.99;100.00;102229.63;5034383;28;20053;-59
2022/01/21 01:33:36;;;;;;;2.75;2.55;;;;;;;-0.99;100.00;102218.69;5033948;28;20406;-58
2022/01/21 01:36:43;;;;;;;3.20;2.47;;;;;;;-1.02;100.00;102220.16;5002642;28;20057;-59
2022/01/21 01:39:58;;;;;;;7.28;3.22;;;;;;;-1.03;100.00;102223.25;4994553;28;20080;-58
2022/01/21 01:49:51;;;;;;;5.50;4.07;;;;;;;-1.07;100.00;102219.59;5013647;28;20053;-58
2022/01/21 01:52:54;;;;;;;1.15;1.15;;;;;;;-1.14;100.00;102222.09;5014025;28;20057;-58
2022/01/21 01:55:58;;;;;;;24.80;3.45;;;;;;;-1.15;100.00;102220.50;5014008;28;20049;-58
2022/01/21 01:59:01;;;;;;;27.25;4.10;;;;;;;-1.14;100.00;102224.81;5013917;28;20046;-59
2022/01/21 02:02:09;;;;;;;16.02;5.32;;;;;;;-1.15;100.00;102229.47;5013146;28;20049;-58
2022/01/21 02:05:12;;;;;;;13.98;3.28;;;;;;;-1.16;100.00;102235.31;5013793;28;20041;-58
2022/01/21 02:08:16;;;;;;;11.48;3.30;;;;;;;-1.16;100.00;102232.56;5013528;28;20045;-58
2022/01/21 02:11:20;;;;;;;4.88;2.55;;;;;;;-1.11;100.00;102229.63;5013688;28;20050;-58
2022/01/21 02:14:28;;;;;;;1.83;1.70;;;;;;;-1.07;100.00;102231.34;5016193;28;20053;-58
2022/01/21 02:24:17;;;;;;;30.77;3.00;;;;;;;-0.90;100.00;102227.59;5013748;28;20041;-58
2022/01/21 02:27:21;;;;;;;5.93;2.25;;;;;;;-0.88;100.00;102219.84;5020207;28;20045;-58
2022/01/21 02:30:25;;;;;;;6.50;2.92;;;;;;;-0.81;100.00;102225.56;5033329;28;20056;-58
2022/01/21 02:33:28;;;;;;;13.48;3.58;;;;;;;-0.73;100.00;102226.59;5032916;28;20403;-58
2022/01/21 02:36:32;;;;;;;5.88;3.03;;;;;;;-0.70;100.00;102226.72;5004156;28;20722;-58
2022/01/21 02:39:35;;;;;;;1.85;1.35;;;;;;;-0.67;100.00;102215.06;4993048;28;20061;-58
2022/01/21 02:42:41;;;;;;;6.65;2.70;;;;;;;-0.62;100.00;102223.06;4994178;28;20041;-58
2022/01/21 02:45:46;;;;;;;1.60;1.60;;;;;;;-0.56;100.00;102232.63;4993670;28;20502;-58
2022/01/21 02:48:50;;;;;;;6.45;3.45;;;;;;;-0.50;100.00;102228.56;4993575;28;20411;-58
2022/01/21 02:51:55;;;;;;;0.63;0.63;;;;;;;-0.44;100.00;102229.09;4992539;28;20054;-58
2022/01/21 02:54:58;;;;;;;2.13;2.00;;;;;;;-0.29;100.00;102226.47;4993491;28;20053;-58
2022/01/21 02:58:02;;;;;;;9.07;3.45;;;;;;;-0.24;100.00;102217.22;4993490;28;20057;-57
2022/01/21 03:01:07;;;;;;;4.82;2.35;;;;;;;-0.14;100.00;102206.59;4993457;28;20053;-57
2022/01/21 03:04:15;;;;;;;2.13;2.03;;;;;;;-0.13;100.00;102213.66;4993652;28;20050;-58
2022/01/21 03:07:19;;;;;;;1.58;1.58;;;;;;;-0.09;100.00;102202.81;4993573;28;20502;-58
2022/01/21 03:10:22;;;;;;;4.47;2.72;;;;;;;-0.05;100.00;102204.53;4993366;28;20053;-58
2022/01/21 03:13:25;;;;;;;14.30;1.58;;;;;;;0.07;100.00;102198.19;4993139;28;20157;-58
2022/01/21 03:16:29;;;;;;;2.58;2.38;;;;;;;0.17;100.00;102194.19;5007537;28;20052;-59
2022/01/21 03:19:32;;;;;;;1.95;1.80;;;;;;;0.25;100.00;102195.97;5012660;28;20490;-58
2022/01/21 03:22:36;;;;;;;6.43;2.13;;;;;;;0.28;100.00;102196.06;5012960;28;20706;-58
2022/01/21 03:25:42;;;;;;;1.65;1.55;;;;;;;0.29;100.00;102191.38;5012632;28;20049;-58
2022/01/21 03:28:48;;;;;;;3.05;2.67;;;;;;;0.34;100.00;102182.94;4993593;28;20053;-58
2022/01/21 03:31:52;;;;;;;4.10;2.53;;;;;;;0.34;100.00;102194.69;4993140;28;20407;-58
2022/01/21 03:34:55;;;;;;;3.85;2.55;;;;;;;0.37;100.00;102182.25;4994415;28;20062;-59
2022/01/21 03:37:59;;;;;;;0.77;0.70;;;;;;;0.43;100.00;102183.56;5016470;28;20061;-59
2022/01/21 03:41:04;;;;;;;2.35;1.92;;;;;;;0.49;100.00;102193.13;5020674;28;20053;-58
2022/01/21 03:44:07;;;;;;;12.77;1.88;;;;;;;0.58;100.00;102191.84;5016247;28;20045;-58
2022/01/21 03:47:11;;;;;;;2.10;1.83;;;;;;;0.66;100.00;102185.41;5016536;28;20046;-58
2022/01/21 03:50:31;;;;;;;3.72;2.78;;;;;;;0.77;100.00;102180.19;5016150;28;20056;-58
2022/01/21 03:53:34;;;;;;;2.42;1.95;;;;;;;0.81;100.00;102175.59;5016129;28;20052;-58
2022/01/21 03:56:39;;;;;;;18.58;2.90;;;;;;;0.85;100.00;102173.72;5016414;28;20053;-58
2022/01/21 03:59:42;;;;;;;1.63;1.52;;;;;;;0.91;100.00;102175.03;5016241;28;20386;-58
2022/01/21 04:02:46;;;;;;;5.32;2.47;;;;;;;1.01;100.00;102174.53;5015880;28;20052;-58
2022/01/21 04:05:49;;;;;;;2.60;2.22;;;;;;;1.07;100.00;102177.78;5015913;28;20056;-58
2022/01/21 04:08:52;;;;;;;3.30;2.13;;;;;;;1.13;100.00;102177.19;5015953;28;20057;-58
2022/01/21 04:11:56;;;;;;;1.38;1.27;;;;;;;1.15;100.00;102163.91;5016187;28;20048;-58
2022/01/21 04:14:59;;;;;;;3.65;2.55;;;;;;;1.20;100.00;102160.91;5015315;28;20057;-58
2022/01/21 04:18:03;;;;;;;1.42;1.38;;;;;;;1.23;100.00;102160.19;5015771;28;20055;-58
2022/01/21 04:21:06;;;;;;;9.82;2.70;;;;;;;1.25;100.00;102157.88;5015374;28;20053;-58
2022/01/21 04:24:10;;;;;;;2.05;1.95;;;;;;;1.26;100.00;102159.47;5015637;28;20049;-59
2022/01/21 04:27:15;;;;;;;19.77;2.33;;;;;;;1.27;100.00;102161.06;5027964;28;20056;-59
2022/01/21 04:30:18;;;;;;;1.40;1.40;;;;;;;1.26;100.00;102159.47;5035469;28;20068;-58
2022/01/21 04:33:22;;;;;;;1.65;1.55;;;;;;;1.33;100.00;102167.88;5035418;28;20394;-59
2022/01/21 04:36:25;;;;;;;2.25;2.05;;;;;;;1.34;100.00;102166.69;5008213;28;20510;-58
2022/01/21 04:39:34;;;;;;;2.67;2.50;;;;;;;1.38;100.00;102164.06;4995877;28;20054;-59
2022/01/21 04:49:22;;;;;;;2.78;1.05;;;;;;;1.56;100.00;102157.00;4995480;28;19913;-58
2022/01/21 04:52:26;;;;;;;8.90;2.80;;;;;;;1.59;100.00;102150.00;4995489;28;20073;-58
2022/01/21 04:55:29;;;;;;;4.07;2.13;;;;;;;1.57;100.00;102142.13;4994276;28;20049;-58
2022/01/21 04:58:33;;;;;;;4.28;2.85;;;;;;;1.61;100.00;102148.50;4995363;28;20123;-58
2022/01/21 05:01:37;;;;;;;2.92;2.58;;;;;;;1.60;100.00;102146.94;4995541;28;20053;-58
2022/01/21 05:04:40;;;;;;;4.13;2.83;;;;;;;1.65;100.00;102137.59;4995797;28;20053;-58
2022/01/21 05:07:43;;;;;;;3.30;3.00;;;;;;;1.67;100.00;102136.06;4995252;28;20073;-58
2022/01/21 05:10:47;;;;;;;6.53;1.13;;;;;;;1.72;100.00;102126.75;4995288;28;20058;-58
2022/01/21 05:13:58;;;;;;;1.20;1.13;;;;;;;1.75;100.00;102123.31;4994912;28;20057;-58
2022/01/21 05:17:04;;;;;;;1.25;1.15;;;;;;;1.78;100.00;102133.56;5013478;28;20054;-58
2022/01/21 05:20:10;;;;;;;8.35;2.08;;;;;;;1.75;100.00;102126.06;5014444;28;20509;-58
2022/01/21 05:23:13;;;;;;;2.85;0.90;;;;;;;1.77;100.00;102121.78;5014746;28;20411;-58
2022/01/21 05:26:17;;;;;;;2.30;1.45;;;;;;;1.80;100.00;102134.78;5019243;28;20056;-58
2022/01/21 05:29:27;;;;;;;3.30;1.42;;;;;;;1.82;100.00;102115.22;5034495;28;20052;-58
2022/01/21 05:32:30;;;;;;;4.40;2.55;;;;;;;1.86;100.00;102116.09;5033778;28;20406;-58
2022/01/21 05:35:34;;;;;;;1.55;1.20;;;;;;;1.89;100.00;102124.38;5021058;28;20049;-59
2022/01/21 05:38:37;;;;;;;3.53;2.28;;;;;;;1.91;100.00;102118.53;4994849;28;20049;-58
2022/01/21 05:41:45;;;;;;;2.92;2.42;;;;;;;1.94;100.00;102115.06;4994827;28;20057;-58
2022/01/21 05:47:52;;;;;;;7.32;3.08;;;;;;;2.04;100.00;102122.72;4994504;28;20053;-58
2022/01/21 05:50:55;;;;;;;9.52;3.63;;;;;;;2.02;100.00;102114.03;4994196;28;20054;-58
2022/01/21 05:53:58;;;;;;;2.53;1.88;;;;;;;2.05;100.00;102118.81;4994800;28;20049;-59
2022/01/21 05:57:05;;;;;;;5.28;3.20;;;;;;;2.04;100.00;102115.28;5012432;28;20057;-59
2022/01/21 06:00:10;;;;;;;6.65;2.50;;;;;;;2.04;100.00;102114.47;5013858;28;20052;-59
2022/01/21 06:03:13;;;;;;;5.32;2.03;;;;;;;2.10;100.00;102115.78;5013248;28;20477;-59
2022/01/21 06:06:17;;;;;;;4.60;2.38;;;;;;;2.11;100.00;102128.34;5013121;28;20061;-59
2022/01/21 06:09:20;;;;;;;2.53;1.95;;;;;;;2.14;100.00;102117.44;5013773;28;20513;-59
2022/01/21 06:12:23;;;;;;;4.70;2.75;;;;;;;2.17;100.00;102111.22;5014039;28;20474;-59
2022/01/21 06:15:27;;;;;;;1.77;0.95;;;;;;;2.17;100.00;102115.91;5013749;28;20442;-59
2022/01/21 06:18:30;;;;;;;4.97;0.95;;;;;;;2.16;100.00;102111.59;5013584;28;20406;-59
2022/01/21 06:21:34;;;;;;;7.53;2.22;;;;;;;2.19;100.00;102116.34;5013301;28;20502;-59
2022/01/21 06:24:37;;;;;;;4.45;1.85;;;;;;;2.25;100.00;102110.19;5013408;28;20057;-59
2022/01/21 06:27:40;;;;;;;1.95;1.60;;;;;;;2.29;100.00;102113.00;5028944;28;20410;-59
2022/01/21 06:30:44;;;;;;;12.95;3.10;;;;;;;2.28;100.00;102108.66;5033487;28;20057;-59
2022/01/21 06:33:47;;;;;;;1.85;1.70;;;;;;;2.39;100.00;102112.41;5033156;28;20052;-59
2022/01/21 06:36:50;;;;;;;10.95;2.20;;;;;;;2.41;100.00;102117.53;5032891;28;20056;-59
2022/01/21 06:39:54;;;;;;;2.40;2.05;;;;;;;2.45;100.00;102105.44;5033146;28;20048;-59
2022/01/21 06:43:02;;;;;;;1.55;1.45;;;;;;;2.44;100.00;102109.38;5032784;28;20074;-59
2022/01/21 06:46:07;;;;;;;3.58;1.23;;;;;;;2.46;100.00;102107.03;5022110;28;20048;-59
2022/01/21 06:49:11;;;;;;;11.05;2.67;;;;;;;2.45;100.00;102110.16;5012818;28;20117;-59
2022/01/21 06:52:14;;;;;;;27.60;6.95;;;;;;;2.47;100.00;102119.63;5012843;28;20513;-60
2022/01/21 06:55:17;;;;;;;2.38;1.58;;;;;;;2.52;100.00;102113.81;5012609;28;20045;-59
2022/01/21 06:58:21;;;;;;;15.02;3.42;;;;;;;2.59;100.00;102111.22;5013700;28;20061;-59
2022/01/21 07:01:25;;;;;;;3.40;2.05;;;;;;;2.60;100.00;102112.00;5013023;28;20052;-59
2022/01/21 07:04:28;;;;;;;3.45;2.88;;;;;;;2.61;100.00;102108.88;5013541;28;20048;-59
2022/01/21 07:07:32;;;;;;;1.30;1.20;;;;;;;2.58;100.00;102104.09;4992826;28;20122;-59
2022/01/21 07:10:35;;;;;;;0.98;0.90;;;;;;;2.59;100.00;102111.22;4993471;28;20375;-59
2022/01/21 07:13:39;;;;;;;2.10;1.65;;;;;;;2.61;100.00;102108.09;4992884;28;20052;-59
2022/01/21 07:16:43;;;;;;;9.13;2.50;;;;;;;2.60;100.00;102117.50;5025206;28;20048;-59
2022/01/21 07:19:47;;;;;;;23.60;3.20;;;;;;;2.58;100.00;102115.09;5035875;28;20060;-59
2022/01/21 07:22:50;;;;;;;5.18;2.58;;;;;;;2.64;100.00;102119.13;5036660;28;20064;-59
2022/01/21 07:25:54;;;;;;;2.75;2.35;;;;;;;2.65;100.00;102114.44;5019815;28;20045;-60
2022/01/21 07:28:58;;;;;;;17.88;3.28;;;;;;;2.65;100.00;102112.50;5016941;28;20411;-60
2022/01/21 07:32:01;;;;;;;18.73;3.55;;;;;;;2.70;100.00;102103.94;5016819;28;20049;-60
2022/01/21 07:35:06;;;;;;;4.72;1.45;;;;;;;2.72;100.00;102101.63;5015336;28;20056;-60
2022/01/21 07:38:11;;;;;;;2.53;2.33;;;;;;;2.70;100.00;102109.44;5016706;28;20053;-60
2022/01/21 07:41:14;;;;;;;6.10;1.27;;;;;;;2.75;100.00;102103.63;5016348;28;20057;-60
2022/01/21 07:44:17;;;;;;;4.78;1.77;;;;;;;2.76;100.00;102099.72;5016661;28;20044;-60
2022/01/21 07:47:21;;;;;;;2.78;1.38;;;;;;;2.79;100.00;102093.50;5016392;28;20053;-60
2022/01/21 07:50:25;;;;;;;8.98;2.05;;;;;;;2.78;100.00;102108.38;5016336;28;20056;-60
2022/01/21 07:53:28;;;;;;;2.00;1.63;;;;;;;2.74;100.00;102102.03;5016420;28;20057;-60
2022/01/21 07:56:33;;;;;;;8.38;2.03;;;;;;;2.74;100.00;102102.03;5012676;28;20053;-60
2022/01/21 07:59:37;;;;;;;6.60;2.78;;;;;;;2.72;100.00;102104.38;5006112;28;20053;-60
2022/01/21 08:02:40;;;;;;;7.55;3.45;;;;;;;2.76;100.00;102096.97;5005734;28;20045;-60
2022/01/21 08:05:46;;;;;;;2.28;1.52;;;;;;;2.85;100.00;102103.00;5004695;28;20046;-60
2022/01/21 08:08:49;;;;;;;3.85;3.55;;;;;;;2.92;100.00;102111.38;5004392;28;20069;-60
2022/01/21 08:11:54;;;;;;;2.05;1.95;;;;;;;2.95;100.00;102107.09;5004854;28;20378;-60
2022/01/21 08:14:57;;;;;;;2.60;1.85;;;;;;;3.03;100.00;102106.06;5002394;28;20053;-60
2022/01/21 08:18:01;;;;;;;10.93;1.35;;;;;;;3.18;100.00;102104.31;5004761;28;20049;-60
2022/01/21 08:21:05;;;;;;;3.20;1.30;;;;;;;3.27;100.00;102110.34;5005014;28;20061;-60
2022/01/21 08:24:09;;;;;;;1.65;1.13;;;;;;;3.34;100.00;102124.19;5005517;28;20507;-60
2022/01/21 08:27:12;;;;;;;3.10;0.98;;;;;;;3.35;100.00;102121.09;5021101;28;20055;-60
2022/01/21 08:30:17;;;;;;;5.57;2.35;;;;;;;3.38;100.00;102112.06;5035282;28;20044;-60
2022/01/21 08:33:20;;;;;;;4.20;1.20;;;;;;;3.40;100.00;102111.72;5023130;28;20414;-60
2022/01/21 08:36:25;;;;;;;0.52;0.52;;;;;;;3.46;100.00;102113.00;5005849;28;20065;-60
2022/01/21 08:39:29;;;;;;;2.58;1.08;;;;;;;3.58;100.00;102115.50;5002776;28;20494;-60
2022/01/21 08:42:33;;;;;;;8.07;0.90;;;;;;;3.66;100.00;102114.44;5002862;28;20498;-60
2022/01/21 08:45:36;;;;;;;8.52;1.85;;;;;;;3.71;100.00;102112.16;5004667;28;20632;-61
2022/01/21 08:48:40;;;;;;;10.45;1.70;;;;;;;3.79;100.00;102104.75;5014183;28;20045;-60
2022/01/21 08:51:53;;;;;;;1.35;1.15;;;;;;;3.88;100.00;102102.50;5014171;28;20049;-60
2022/01/21 08:54:56;;;;;;;1.95;1.85;;;;;;;3.93;100.00;102104.16;5015129;28;20057;-61
2022/01/21 08:57:59;;;;;;;2.83;0.88;;;;;;;3.94;100.00;102112.06;5014641;28;20485;-60
2022/01/21 09:01:03;;;;;;;4.78;1.80;;;;;;;3.95;100.00;102104.56;5014089;28;20057;-61
2022/01/21 09:04:06;;;;;;;1.65;0.88;;;;;;;4.03;100.00;102104.25;5014853;28;20041;-60
2022/01/21 09:07:09;;;;;;;3.50;1.77;;;;;;;4.12;100.00;102104.78;5014280;28;20052;-60
2022/01/21 09:10:13;;;;;;;7.55;3.28;;;;;;;4.16;100.00;102102.84;5014822;28;20052;-60
2022/01/21 09:13:17;;;;;;;5.50;2.13;;;;;;;4.23;100.00;102100.16;5014467;28;20068;-60
2022/01/21 09:16:20;;;;;;;2.38;0.90;;;;;;;4.27;100.00;102100.19;5013971;28;20053;-60
2022/01/21 09:19:25;;;;;;;1.58;1.33;;;;;;;4.29;100.00;102098.66;5014562;28;20069;-60
2022/01/21 09:22:28;;;;;;;4.85;1.05;;;;;;;4.28;100.00;102086.06;5014558;28;20486;-60
2022/01/21 09:25:32;;;;;;;3.67;2.03;;;;;;;4.28;100.00;102090.78;5014265;28;20045;-59
2022/01/21 09:28:36;;;;;;;4.05;1.77;;;;;;;4.37;100.00;102092.06;4995269;28;20058;-59
2022/01/21 09:31:39;;;;;;;1.38;1.00;;;;;;;4.44;100.00;102088.59;4983157;28;20053;-59
2022/01/21 09:34:42;;;;;;;3.67;1.77;;;;;;;4.55;100.00;102090.25;4994884;28;20519;-59
2022/01/21 09:37:46;;;;;;;3.75;1.60;;;;;;;4.58;100.00;102086.75;5014069;28;20125;-59
2022/01/21 09:40:50;;;;;;;2.45;1.20;;;;;;;4.59;100.00;102082.03;5013933;28;20049;-58
2022/01/21 09:43:56;;;;;;;2.20;1.00;;;;;;;4.55;100.00;102079.22;5013960;28;20049;-58
2022/01/21 09:47:01;;;;;;;1.65;1.52;;;;;;;4.58;100.00;102077.66;5014227;28;20068;-56
2022/01/21 09:50:04;;;;;;;8.60;2.95;;;;;;;4.62;100.00;102084.00;5013787;28;20497;-56
2022/01/21 09:53:08;;;;;;;5.20;1.83;;;;;;;4.69;100.00;102083.28;5004410;28;20502;-56
2022/01/21 09:56:14;;;;;;;6.78;2.55;;;;;;;4.73;100.00;102095.94;5006502;28;20049;-56
2022/01/21 09:59:19;;;;;;;2.50;0.90;;;;;;;4.79;100.00;102077.03;5001137;28;20502;-56
2022/01/21 10:02:27;;;;;;;2.42;2.03;;;;;;;4.84;100.00;102084.97;5004300;28;20045;-56
2022/01/21 10:05:32;;;;;;;6.88;1.92;;;;;;;4.93;100.00;102093.72;4994025;28;20046;-56
2022/01/21 10:08:39;;;;;;;0.60;0.60;;;;;;;4.98;100.00;102087.88;4993334;28;20478;-56
2022/01/21 10:11:48;;;;;;;3.65;2.00;;;;;;;5.06;100.00;102087.53;5008075;28;20057;-56
2022/01/21 10:14:52;;;;;;;2.47;1.88;;;;;;;5.11;100.00;102100.97;5013511;28;20053;-56
2022/01/21 10:18:02;;;;;;;6.53;2.90;;;;;;;5.12;100.00;102096.25;5013480;28;20045;-56
2022/01/21 10:21:13;;;;;;;4.53;1.40;;;;;;;5.16;100.00;102086.00;5012977;28;20057;-56
2022/01/21 10:24:17;;;;;;;1.27;0.95;;;;;;;5.19;100.00;102085.25;5013879;28;20485;-56
2022/01/21 10:27:35;;;;;;;3.67;2.30;;;;;;;5.27;100.00;102084.91;5021306;28;20092;-56
2022/01/21 10:30:42;;;;;;;4.97;1.05;;;;;;;5.39;100.00;102078.28;5033380;28;20053;-56
2022/01/21 10:33:56;;;;;;;5.88;1.08;;;;;;;5.45;100.00;102082.25;5032921;28;20048;-62
2022/01/21 10:37:09;;;;;;;3.03;1.08;;;;;;;5.54;100.00;102074.41;4996551;28;20059;-62
2022/01/21 10:40:15;;;;;;;10.90;1.63;;;;;;;5.59;100.00;102082.31;4993577;28;20400;-62
2022/01/21 10:43:18;;;;;;;0.77;0.55;;;;;;;5.66;100.00;102082.34;4993496;28;20073;-61
2022/01/21 10:46:22;;;;;;;8.57;1.27;;;;;;;5.69;100.00;102075.28;4993640;28;20054;-61
2022/01/21 10:49:25;;;;;;;5.15;1.05;;;;;;;5.78;100.00;102075.72;4993427;28;20053;-62
2022/01/21 10:52:37;;;;;;;1.17;0.60;;;;;;;5.82;100.00;102080.06;4993560;28;20122;-61
2022/01/21 10:55:41;;;;;;;10.38;1.55;;;;;;;5.85;100.00;102079.31;4993126;28;20400;-62
2022/01/21 10:58:53;;;;;;;0.10;0.10;;;;;;;5.91;100.00;102076.97;4993665;28;20057;-61
2022/01/21 11:01:59;;;;;;;0.63;0.30;;;;;;;6.12;100.00;102082.56;4993105;28;20049;-61
2022/01/21 11:05:12;;;;;;;3.60;0.55;;;;;;;6.30;100.00;102077.88;4993355;28;20051;-61
2022/01/21 11:08:17;;;;;;;3.45;0.98;;;;;;;6.39;100.00;102071.97;4993102;28;20057;-61
2022/01/21 11:11:22;;;;;;;13.52;1.30;;;;;;;6.62;100.00;102066.84;4993059;28;20376;-61
2022/01/21 11:14:26;;;;;;;3.90;1.17;;;;;;;6.66;100.00;102078.72;4992819;28;20049;-61
2022/01/21 11:17:30;;;;;;;1.45;0.22;;;;;;;6.78;100.00;102076.34;4993539;28;20388;-61
2022/01/21 11:20:37;;;;;;;1.05;0.35;;;;;;;6.91;100.00;102081.50;4993082;28;20057;-61
2022/01/21 11:23:42;;;;;;;12.82;1.42;;;;;;;6.92;100.00;102067.25;4991971;28;20403;-63
2022/01/21 11:27:05;;;;;;;8.73;2.30;;;;;;;7.02;100.00;102073.97;5016288;28;20068;-61
2022/01/21 11:30:09;;;;;;;7.10;1.42;;;;;;;7.18;100.00;102064.03;5023965;28;20046;-61
2022/01/21 11:33:13;;;;;;;6.22;1.17;;;;;;;7.33;100.00;102062.81;4993026;28;20069;-61
2022/01/21 11:36:18;;;;;;;5.22;0.85;;;;;;;7.36;100.00;102062.00;4999726;28;20518;-61
2022/01/21 11:39:24;;;;;;;9.40;2.90;;;;;;;7.48;100.00;102044.16;4992975;28;20053;-60
2022/01/21 11:42:29;;;;;;;8.52;1.25;;;;;;;7.58;100.00;102052.44;4995079;28;20058;-61
2022/01/21 11:46:04;;;;;;;4.43;0.73;;;;;;;7.64;100.00;102045.28;4999419;28;20049;-60
2022/01/21 11:48:58;;;;;;;4.38;1.70;;;;;;;7.64;100.00;102039.72;5012596;28;20049;-60
2022/01/21 11:52:28;;;;;;;2.53;1.10;;;;;;;7.73;100.00;102035.75;5002170;28;20053;-60
2022/01/21 11:55:33;;;;;;;0.38;0.38;;;;;;;7.85;100.00;102038.06;4999018;28;20407;-60
2022/01/21 11:58:36;;;;;;;2.25;1.00;;;;;;;7.98;100.00;102044.75;5012433;28;20049;-60
2022/01/21 12:01:48;;;;;;;0.68;0.60;;;;;;;7.99;100.00;102046.34;5012162;28;20104;-60
2022/01/21 12:05:02;;;;;;;0.93;0.55;;;;;;;8.02;100.00;102039.97;5013260;28;20041;-60
2022/01/21 12:08:06;;;;;;;2.63;0.70;;;;;;;8.03;100.00;102039.56;5015439;28;20406;-60
2022/01/21 12:11:37;;;;;;;3.22;0.93;;;;;;;8.15;100.00;102041.06;5015808;28;20061;-60
2022/01/21 12:14:44;;;;;;;1.52;0.70;;;;;;;8.19;100.00;102036.28;5015906;28;20057;-60
2022/01/21 12:17:53;;;;;;;0.20;0.20;;;;;;;8.30;100.00;102037.03;4996513;28;20587;-59
2022/01/21 12:21:03;;;;;;;2.13;0.50;;;;;;;8.35;100.00;102028.28;4996006;28;20065;-60
2022/01/21 12:24:09;;;;;;;11.90;1.30;;;;;;;8.35;100.00;102033.84;4996145;28;20054;-59
2022/01/21 12:27:14;;;;;;;0.30;0.30;;;;;;;8.37;100.00;102025.91;5021247;28;20052;-60
2022/01/21 12:30:20;;;;;;;6.22;1.50;;;;;;;8.40;100.00;102025.84;5015456;28;20053;-59
2022/01/21 12:33:59;;;;;;;0.80;0.35;;;;;;;8.43;100.00;102024.25;5014570;28;20052;-59
2022/01/21 12:37:07;;;;;;;0.17;0.17;;;;;;;8.40;100.00;102020.31;5014985;28;20061;-59
2022/01/21 12:40:35;;;;;;;0.50;0.50;;;;;;;8.31;100.00;102038.63;4998043;28;20061;-59
2022/01/21 12:43:49;;;;;;;0.80;0.40;;;;;;;8.29;100.00;102021.59;4995819;28;20050;-60
2022/01/21 12:46:52;;;;;;;2.25;0.43;;;;;;;8.38;100.00;102021.94;5012763;28;20057;-59
2022/01/21 12:49:58;;;;;;;2.38;0.77;;;;;;;8.39;100.00;102018.75;5014834;28;20403;-59
2022/01/21 12:56:07;;;;;;;3.97;1.10;;;;;;;8.38;100.00;102025.47;5014971;28;20049;-59
2022/01/21 12:59:16;;;;;;;0.17;0.17;;;;;;;8.36;100.00;102013.19;5014897;28;20411;-59
2022/01/21 13:02:24;;;;;;;0.65;0.40;;;;;;;8.45;100.00;102010.75;5014136;28;20049;-59
2022/01/21 13:05:38;;;;;;;0.20;0.10;;;;;;;8.52;100.00;102004.34;5020138;28;20040;-59
2022/01/21 13:09:08;;;;;;;0.40;0.40;;;;;;;8.59;100.00;102009.84;5034480;28;20569;-59
2022/01/21 13:12:13;;;;;;;0.20;0.20;;;;;;;8.62;100.00;102012.59;5034867;28;20052;-59
2022/01/21 13:15:17;;;;;;;0.32;0.17;;;;;;;8.57;100.00;102004.72;5025601;28;20045;-59
2022/01/21 13:18:31;;;;;;;0.60;0.17;;;;;;;8.65;100.00;102009.00;4995331;28;20096;-64
2022/01/21 13:21:35;;;;;;;0.90;0.40;;;;;;;8.78;100.00;101985.09;5000949;28;21078;-66
2022/01/21 13:24:51;;;;;;;0.10;0.10;;;;;;;8.81;100.00;101987.03;5014577;28;20387;-66
2022/01/21 13:28:03;;;;;;;1.08;0.45;;;;;;;8.85;100.00;101985.03;5031523;28;20053;-66
2022/01/21 13:31:06;;;;;;;2.83;0.43;;;;;;;8.87;100.00;101982.63;5033992;28;20053;-67
2022/01/21 13:34:31;;;;;;;2.50;0.28;;;;;;;8.95;100.00;101977.75;5033842;28;20493;-67
2022/01/21 13:37:35;;;;;;;6.00;0.50;;;;;;;8.97;100.00;101967.81;4994221;28;20057;-67
2022/01/21 13:40:43;;;;;;;0.25;0.20;;;;;;;8.96;100.00;101966.25;4994992;28;20050;-67
2022/01/21 13:43:49;;;;;;;0.93;0.30;;;;;;;8.83;100.00;101959.63;4994111;28;20049;-67
2022/01/21 13:46:52;;;;;;;0.50;0.38;;;;;;;8.84;100.00;101966.75;5021845;28;20677;-67
2022/01/21 13:49:59;;;;;;;0.55;0.40;;;;;;;8.87;100.00;101971.50;5013434;28;20049;-67
2022/01/21 13:53:06;;;;;;;0.63;0.63;;;;;;;8.89;100.00;101971.88;5014188;28;20049;-67
2022/01/21 13:56:11;;;;;;;0.10;0.10;;;;;;;8.86;100.00;101963.56;5013541;28;20053;-67
2022/01/21 13:59:16;;;;;;;0.10;0.10;;;;;;;8.91;100.00;101950.03;5013982;28;20049;-66
2022/01/21 14:02:20;;;;;;;0.32;0.32;;;;;;;8.89;100.00;101957.97;5013574;28;20052;-67
2022/01/21 14:05:24;;;;;;;2.90;0.77;;;;;;;8.96;100.00;101952.34;5013572;28;20053;-68
2022/01/21 14:08:30;;;;;;;0.55;0.30;;;;;;;8.99;100.00;101945.16;5013298;28;20057;-53
2022/01/21 14:11:46;;;;;;;0.93;0.30;;;;;;;8.96;100.00;101957.13;5013987;28;20049;-53
2022/01/21 14:14:52;;;;;;;0.10;0.10;;;;;;;8.89;100.00;101957.19;5013490;28;20077;-53
2022/01/21 14:17:55;;;;;;;0.35;0.35;;;;;;;8.84;100.00;101955.66;5013634;28;20486;-53
2022/01/21 14:21:08;;;;;;;0.20;0.20;;;;;;;8.79;100.00;101958.84;5013556;28;20060;-53
2022/01/21 14:24:23;;;;;;;0.10;0.10;;;;;;;8.76;100.00;101970.81;5013529;28;20399;-53
2022/01/21 14:27:29;;;;;;;0.25;0.20;;;;;;;8.77;100.00;101966.81;5026504;28;20056;-53
2022/01/21 14:30:39;;;;;;;0.57;0.47;;;;;;;8.78;100.00;101968.41;5033549;28;20394;-53
2022/01/21 14:33:43;;;;;;;0.20;0.20;;;;;;;8.74;100.00;101962.09;5032479;28;20044;-53
2022/01/21 14:37:06;;;;;;;0.90;0.35;;;;;;;8.68;100.00;101958.19;4999915;28;20049;-53
2022/01/21 14:40:15;;;;;;;0.75;0.15;;;;;;;8.63;100.00;101944.75;4993271;28;20061;-53
2022/01/21 14:43:21;;;;;;;0.30;0.30;;;;;;;8.56;100.00;101935.69;4993205;28;20065;-53
2022/01/21 14:46:27;;;;;;;0.35;0.20;;;;;;;8.50;100.00;101940.91;4993086;28;20419;-53
2022/01/21 14:49:30;;;;;;;0.15;0.15;;;;;;;8.44;100.00;101941.75;4992400;28;20057;-53
2022/01/21 14:52:43;;;;;;;1.08;0.30;;;;;;;8.40;100.00;101931.47;4992811;28;20053;-53
2022/01/21 14:55:50;;;;;;;0.20;0.20;;;;;;;8.33;100.00;101947.41;4993157;28;20053;-53
2022/01/21 14:59:07;;;;;;;0.10;0.10;;;;;;;8.33;100.00;101941.84;4993223;28;20411;-53
2022/01/21 15:02:11;;;;;;;0.75;0.28;;;;;;;8.42;100.00;101944.16;4992903;28;20053;-53
2022/01/21 15:05:14;;;;;;;1.05;0.50;;;;;;;8.21;100.00;101947.84;4993012;28;20073;-52
2022/01/21 15:08:31;;;;;;;0.32;0.20;;;;;;;8.37;100.00;101954.50;4992835;28;20061;-52
2022/01/21 15:11:56;;;;;;;0.10;0.00;;;;;;;8.42;100.00;101944.94;4991948;28;20061;-52